sensor_id;sensor_type;location;lat;lon;timestamp;P1;durP1;ratioP1;P2;durP2;ratioP2
76576;SDS011;65441;44.748;37.600;2023-10-31T00:00:27;2.05;;;0.80;;
76576;SDS011;65441;44.748;37.600;2023-10-31T00:02:55;4.18;;;1.13;;
76576;SDS011;65441;44.748;37.600;2023-10-31T00:05:25;3.13;;;0.82;;
76576;SDS011;65441;44.748;37.600;2023-10-31T00:07:53;4.47;;;0.90;;
76576;SDS011;65441;44.748;37.600;2023-10-31T00:10:21;2.83;;;1.05;;
76576;SDS011;65441;44.748;37.600;2023-10-31T00:12:49;4.70;;;1.02;;
76576;SDS011;65441;44.748;37.600;2023-10-31T00:15:17;3.33;;;0.88;;
76576;SDS011;65441;44.748;37.600;2023-10-31T00:17:45;4.35;;;0.80;;
76576;SDS011;65441;44.748;37.600;2023-10-31T00:20:14;2.33;;;0.90;;
76576;SDS011;65441;44.748;37.600;2023-10-31T00:22:43;6.38;;;0.80;;
76576;SDS011;65441;44.748;37.600;2023-10-31T00:25:11;3.20;;;1.00;;
76576;SDS011;65441;44.748;37.600;2023-10-31T00:27:39;3.85;;;1.05;;
76576;SDS011;65441;44.748;37.600;2023-10-31T00:30:07;2.80;;;0.70;;
76576;SDS011;65441;44.748;37.600;2023-10-31T00:32:36;3.67;;;1.00;;
76576;SDS011;65441;44.748;37.600;2023-10-31T00:35:04;4.13;;;1.15;;
76576;SDS011;65441;44.748;37.600;2023-10-31T00:37:33;2.92;;;0.77;;
76576;SDS011;65441;44.748;37.600;2023-10-31T00:40:02;2.78;;;0.80;;
76576;SDS011;65441;44.748;37.600;2023-10-31T00:42:31;2.33;;;0.90;;
76576;SDS011;65441;44.748;37.600;2023-10-31T00:44:59;4.65;;;1.30;;
76576;SDS011;65441;44.748;37.600;2023-10-31T00:47:27;3.47;;;1.17;;
76576;SDS011;65441;44.748;37.600;2023-10-31T00:49:55;3.03;;;1.13;;
76576;SDS011;65441;44.748;37.600;2023-10-31T00:52:24;4.47;;;1.02;;
76576;SDS011;65441;44.748;37.600;2023-10-31T00:54:52;3.60;;;1.08;;
76576;SDS011;65441;44.748;37.600;2023-10-31T00:57:22;4.25;;;0.93;;
76576;SDS011;65441;44.748;37.600;2023-10-31T00:59:50;4.28;;;1.00;;
76576;SDS011;65441;44.748;37.600;2023-10-31T01:02:18;3.42;;;1.13;;
76576;SDS011;65441;44.748;37.600;2023-10-31T01:04:46;1.67;;;0.68;;
76576;SDS011;65441;44.748;37.600;2023-10-31T01:07:14;3.47;;;1.23;;
76576;SDS011;65441;44.748;37.600;2023-10-31T01:09:44;2.55;;;0.80;;
76576;SDS011;65441;44.748;37.600;2023-10-31T01:12:12;3.03;;;0.88;;
76576;SDS011;65441;44.748;37.600;2023-10-31T01:14:41;4.63;;;0.88;;
76576;SDS011;65441;44.748;37.600;2023-10-31T01:17:09;2.58;;;0.73;;
76576;SDS011;65441;44.748;37.600;2023-10-31T01:19:38;3.03;;;0.95;;
76576;SDS011;65441;44.748;37.600;2023-10-31T01:22:06;3.28;;;0.82;;
76576;SDS011;65441;44.748;37.600;2023-10-31T01:24:34;4.43;;;1.05;;
76576;SDS011;65441;44.748;37.600;2023-10-31T01:27:03;2.13;;;0.80;;
76576;SDS011;65441;44.748;37.600;2023-10-31T01:29:31;3.13;;;1.05;;
76576;SDS011;65441;44.748;37.600;2023-10-31T01:32:01;2.65;;;1.08;;
76576;SDS011;65441;44.748;37.600;2023-10-31T01:34:29;4.63;;;1.10;;
76576;SDS011;65441;44.748;37.600;2023-10-31T01:36:57;3.83;;;1.10;;
76576;SDS011;65441;44.748;37.600;2023-10-31T01:39:25;3.15;;;0.73;;
76576;SDS011;65441;44.748;37.600;2023-10-31T01:41:53;3.00;;;1.05;;
76576;SDS011;65441;44.748;37.600;2023-10-31T01:44:21;5.45;;;1.08;;
76576;SDS011;65441;44.748;37.600;2023-10-31T01:46:51;3.97;;;1.08;;
76576;SDS011;65441;44.748;37.600;2023-10-31T01:49:22;6.47;;;1.02;;
76576;SDS011;65441;44.748;37.600;2023-10-31T01:51:51;4.22;;;1.42;;
76576;SDS011;65441;44.748;37.600;2023-10-31T01:54:19;2.45;;;0.80;;
76576;SDS011;65441;44.748;37.600;2023-10-31T01:56:47;2.65;;;1.08;;
76576;SDS011;65441;44.748;37.600;2023-10-31T01:59:17;3.45;;;1.00;;
76576;SDS011;65441;44.748;37.600;2023-10-31T02:01:45;4.28;;;0.98;;
76576;SDS011;65441;44.748;37.600;2023-10-31T02:04:13;3.30;;;1.10;;
76576;SDS011;65441;44.748;37.600;2023-10-31T02:06:42;5.75;;;1.55;;
76576;SDS011;65441;44.748;37.600;2023-10-31T02:09:10;5.35;;;1.15;;
76576;SDS011;65441;44.748;37.600;2023-10-31T02:11:38;3.10;;;0.98;;
76576;SDS011;65441;44.748;37.600;2023-10-31T02:14:07;4.47;;;1.13;;
76576;SDS011;65441;44.748;37.600;2023-10-31T02:16:35;5.55;;;1.10;;
76576;SDS011;65441;44.748;37.600;2023-10-31T02:19:05;6.18;;;1.20;;
76576;SDS011;65441;44.748;37.600;2023-10-31T02:24:07;6.13;;;1.27;;
76576;SDS011;65441;44.748;37.600;2023-10-31T02:26:35;2.30;;;0.90;;
76576;SDS011;65441;44.748;37.600;2023-10-31T02:29:03;5.60;;;1.33;;
76576;SDS011;65441;44.748;37.600;2023-10-31T02:31:33;4.75;;;1.50;;
76576;SDS011;65441;44.748;37.600;2023-10-31T02:34:02;4.70;;;1.08;;
76576;SDS011;65441;44.748;37.600;2023-10-31T02:36:31;6.00;;;1.13;;
76576;SDS011;65441;44.748;37.600;2023-10-31T02:39:01;5.40;;;1.48;;
76576;SDS011;65441;44.748;37.600;2023-10-31T02:41:29;9.23;;;1.13;;
76576;SDS011;65441;44.748;37.600;2023-10-31T02:43:57;3.55;;;0.90;;
76576;SDS011;65441;44.748;37.600;2023-10-31T02:46:25;4.90;;;1.58;;
76576;SDS011;65441;44.748;37.600;2023-10-31T02:48:53;2.70;;;1.08;;
76576;SDS011;65441;44.748;37.600;2023-10-31T02:51:21;3.50;;;1.13;;
76576;SDS011;65441;44.748;37.600;2023-10-31T02:53:49;3.40;;;0.98;;
76576;SDS011;65441;44.748;37.600;2023-10-31T02:56:20;6.18;;;1.40;;
76576;SDS011;65441;44.748;37.600;2023-10-31T02:58:48;4.55;;;1.17;;
76576;SDS011;65441;44.748;37.600;2023-10-31T03:01:16;9.68;;;1.40;;
76576;SDS011;65441;44.748;37.600;2023-10-31T03:03:46;3.47;;;1.02;;
76576;SDS011;65441;44.748;37.600;2023-10-31T03:06:14;3.25;;;0.85;;
76576;SDS011;65441;44.748;37.600;2023-10-31T03:08:42;4.00;;;1.08;;
76576;SDS011;65441;44.748;37.600;2023-10-31T03:11:21;2.38;;;1.00;;
76576;SDS011;65441;44.748;37.600;2023-10-31T03:13:50;2.92;;;0.90;;
76576;SDS011;65441;44.748;37.600;2023-10-31T03:16:19;2.78;;;1.13;;
76576;SDS011;65441;44.748;37.600;2023-10-31T03:18:48;4.28;;;1.08;;
76576;SDS011;65441;44.748;37.600;2023-10-31T03:21:16;3.28;;;0.98;;
76576;SDS011;65441;44.748;37.600;2023-10-31T03:23:46;2.08;;;0.90;;
76576;SDS011;65441;44.748;37.600;2023-10-31T03:26:15;3.38;;;0.70;;
76576;SDS011;65441;44.748;37.600;2023-10-31T03:28:48;6.05;;;0.90;;
76576;SDS011;65441;44.748;37.600;2023-10-31T03:31:16;2.60;;;0.70;;
76576;SDS011;65441;44.748;37.600;2023-10-31T03:33:44;3.58;;;0.95;;
76576;SDS011;65441;44.748;37.600;2023-10-31T03:36:12;0.90;;;0.40;;
76576;SDS011;65441;44.748;37.600;2023-10-31T03:38:40;2.50;;;0.70;;
76576;SDS011;65441;44.748;37.600;2023-10-31T03:41:08;2.42;;;0.70;;
76576;SDS011;65441;44.748;37.600;2023-10-31T03:43:36;1.33;;;0.52;;
76576;SDS011;65441;44.748;37.600;2023-10-31T03:46:06;1.88;;;0.50;;
76576;SDS011;65441;44.748;37.600;2023-10-31T03:48:34;2.63;;;0.65;;
76576;SDS011;65441;44.748;37.600;2023-10-31T03:51:02;1.50;;;0.50;;
76576;SDS011;65441;44.748;37.600;2023-10-31T03:53:30;1.45;;;0.60;;
76576;SDS011;65441;44.748;37.600;2023-10-31T03:55:58;4.80;;;0.70;;
76576;SDS011;65441;44.748;37.600;2023-10-31T03:58:27;1.13;;;0.32;;
76576;SDS011;65441;44.748;37.600;2023-10-31T04:00:56;8.90;;;0.88;;
76576;SDS011;65441;44.748;37.600;2023-10-31T04:03:25;1.92;;;0.43;;
76576;SDS011;65441;44.748;37.600;2023-10-31T04:05:54;2.30;;;0.70;;
76576;SDS011;65441;44.748;37.600;2023-10-31T04:08:22;0.98;;;0.63;;
76576;SDS011;65441;44.748;37.600;2023-10-31T04:10:50;1.92;;;0.50;;
76576;SDS011;65441;44.748;37.600;2023-10-31T04:13:18;1.23;;;0.55;;
76576;SDS011;65441;44.748;37.600;2023-10-31T04:15:46;1.85;;;0.70;;
76576;SDS011;65441;44.748;37.600;2023-10-31T04:18:14;2.05;;;0.70;;
76576;SDS011;65441;44.748;37.600;2023-10-31T04:20:44;1.48;;;0.47;;
76576;SDS011;65441;44.748;37.600;2023-10-31T04:23:12;7.03;;;0.98;;
76576;SDS011;65441;44.748;37.600;2023-10-31T04:25:40;4.43;;;0.70;;
76576;SDS011;65441;44.748;37.600;2023-10-31T04:28:08;2.35;;;0.70;;
76576;SDS011;65441;44.748;37.600;2023-10-31T04:30:36;1.58;;;0.50;;
76576;SDS011;65441;44.748;37.600;2023-10-31T04:33:04;6.07;;;0.80;;
76576;SDS011;65441;44.748;37.600;2023-10-31T04:35:32;2.40;;;0.77;;
76576;SDS011;65441;44.748;37.600;2023-10-31T04:38:02;3.50;;;0.65;;
76576;SDS011;65441;44.748;37.600;2023-10-31T04:40:30;4.78;;;0.90;;
76576;SDS011;65441;44.748;37.600;2023-10-31T04:42:58;3.72;;;0.73;;
76576;SDS011;65441;44.748;37.600;2023-10-31T04:45:26;4.85;;;1.00;;
76576;SDS011;65441;44.748;37.600;2023-10-31T04:47:54;3.60;;;1.02;;
76576;SDS011;65441;44.748;37.600;2023-10-31T04:50:22;2.22;;;0.50;;
76576;SDS011;65441;44.748;37.600;2023-10-31T04:52:50;3.03;;;1.08;;
76576;SDS011;65441;44.748;37.600;2023-10-31T04:55:20;1.92;;;0.85;;
76576;SDS011;65441;44.748;37.600;2023-10-31T04:57:48;2.00;;;0.70;;
76576;SDS011;65441;44.748;37.600;2023-10-31T05:00:16;4.38;;;1.02;;
76576;SDS011;65441;44.748;37.600;2023-10-31T05:02:45;5.95;;;0.75;;
76576;SDS011;65441;44.748;37.600;2023-10-31T05:05:13;4.53;;;0.88;;
76576;SDS011;65441;44.748;37.600;2023-10-31T05:07:42;10.95;;;1.48;;
76576;SDS011;65441;44.748;37.600;2023-10-31T05:10:10;11.77;;;1.60;;
76576;SDS011;65441;44.748;37.600;2023-10-31T05:12:40;6.38;;;0.93;;
76576;SDS011;65441;44.748;37.600;2023-10-31T05:15:08;4.40;;;0.90;;
76576;SDS011;65441;44.748;37.600;2023-10-31T05:17:37;3.88;;;0.70;;
76576;SDS011;65441;44.748;37.600;2023-10-31T05:20:05;5.38;;;1.00;;
76576;SDS011;65441;44.748;37.600;2023-10-31T05:22:35;2.38;;;0.77;;
76576;SDS011;65441;44.748;37.600;2023-10-31T05:25:04;6.93;;;1.02;;
76576;SDS011;65441;44.748;37.600;2023-10-31T05:27:32;3.95;;;0.75;;
76576;SDS011;65441;44.748;37.600;2023-10-31T05:30:02;2.28;;;0.57;;
76576;SDS011;65441;44.748;37.600;2023-10-31T05:32:31;3.33;;;0.65;;
76576;SDS011;65441;44.748;37.600;2023-10-31T05:34:59;4.97;;;0.82;;
76576;SDS011;65441;44.748;37.600;2023-10-31T05:37:28;1.98;;;0.63;;
76576;SDS011;65441;44.748;37.600;2023-10-31T05:39:56;2.58;;;0.55;;
76576;SDS011;65441;44.748;37.600;2023-10-31T05:42:24;3.63;;;0.93;;
76576;SDS011;65441;44.748;37.600;2023-10-31T05:44:53;2.95;;;1.00;;
76576;SDS011;65441;44.748;37.600;2023-10-31T05:47:24;2.42;;;0.82;;
76576;SDS011;65441;44.748;37.600;2023-10-31T05:49:53;1.50;;;0.60;;
76576;SDS011;65441;44.748;37.600;2023-10-31T05:52:21;2.35;;;0.60;;
76576;SDS011;65441;44.748;37.600;2023-10-31T05:54:49;2.17;;;0.57;;
76576;SDS011;65441;44.748;37.600;2023-10-31T05:57:18;1.23;;;0.50;;
76576;SDS011;65441;44.748;37.600;2023-10-31T05:59:46;2.30;;;0.65;;
76576;SDS011;65441;44.748;37.600;2023-10-31T06:02:14;5.40;;;1.00;;
76576;SDS011;65441;44.748;37.600;2023-10-31T06:04:43;2.65;;;0.73;;
76576;SDS011;65441;44.748;37.600;2023-10-31T06:07:11;5.47;;;0.70;;
76576;SDS011;65441;44.748;37.600;2023-10-31T06:09:40;3.83;;;0.80;;
76576;SDS011;65441;44.748;37.600;2023-10-31T06:12:08;3.67;;;0.93;;
76576;SDS011;65441;44.748;37.600;2023-10-31T06:14:36;3.45;;;1.00;;
76576;SDS011;65441;44.748;37.600;2023-10-31T06:17:05;5.10;;;1.05;;
76576;SDS011;65441;44.748;37.600;2023-10-31T06:19:33;3.60;;;0.82;;
76576;SDS011;65441;44.748;37.600;2023-10-31T06:22:03;2.80;;;0.52;;
76576;SDS011;65441;44.748;37.600;2023-10-31T06:24:32;4.00;;;0.60;;
76576;SDS011;65441;44.748;37.600;2023-10-31T06:27:00;4.65;;;0.80;;
76576;SDS011;65441;44.748;37.600;2023-10-31T06:29:29;4.03;;;0.70;;
76576;SDS011;65441;44.748;37.600;2023-10-31T06:31:57;2.25;;;0.90;;
76576;SDS011;65441;44.748;37.600;2023-10-31T06:34:25;3.40;;;0.75;;
76576;SDS011;65441;44.748;37.600;2023-10-31T06:36:53;1.70;;;0.50;;
76576;SDS011;65441;44.748;37.600;2023-10-31T06:39:22;2.03;;;0.70;;
76576;SDS011;65441;44.748;37.600;2023-10-31T06:41:54;3.63;;;0.85;;
76576;SDS011;65441;44.748;37.600;2023-10-31T06:44:23;2.67;;;0.60;;
76576;SDS011;65441;44.748;37.600;2023-10-31T06:46:51;2.45;;;0.60;;
76576;SDS011;65441;44.748;37.600;2023-10-31T06:49:19;1.17;;;0.40;;
76576;SDS011;65441;44.748;37.600;2023-10-31T06:51:48;2.35;;;0.60;;
76576;SDS011;65441;44.748;37.600;2023-10-31T06:54:16;4.50;;;0.90;;
76576;SDS011;65441;44.748;37.600;2023-10-31T06:56:46;2.03;;;0.55;;
76576;SDS011;65441;44.748;37.600;2023-10-31T06:59:14;2.22;;;0.55;;
76576;SDS011;65441;44.748;37.600;2023-10-31T07:01:42;2.15;;;0.60;;
76576;SDS011;65441;44.748;37.600;2023-10-31T07:04:11;2.30;;;0.82;;
76576;SDS011;65441;44.748;37.600;2023-10-31T07:06:39;1.45;;;0.50;;
76576;SDS011;65441;44.748;37.600;2023-10-31T07:09:07;3.05;;;0.57;;
76576;SDS011;65441;44.748;37.600;2023-10-31T07:11:35;9.00;;;1.13;;
76576;SDS011;65441;44.748;37.600;2023-10-31T07:14:05;4.95;;;0.73;;
76576;SDS011;65441;44.748;37.600;2023-10-31T07:16:33;6.20;;;1.00;;
76576;SDS011;65441;44.748;37.600;2023-10-31T07:19:01;8.90;;;1.02;;
76576;SDS011;65441;44.748;37.600;2023-10-31T07:21:29;5.22;;;0.70;;
76576;SDS011;65441;44.748;37.600;2023-10-31T07:23:57;2.50;;;0.75;;
76576;SDS011;65441;44.748;37.600;2023-10-31T07:26:26;7.32;;;0.73;;
76576;SDS011;65441;44.748;37.600;2023-10-31T07:28:54;2.92;;;0.40;;
76576;SDS011;65441;44.748;37.600;2023-10-31T07:31:23;2.25;;;0.50;;
76576;SDS011;65441;44.748;37.600;2023-10-31T07:33:51;2.75;;;0.60;;
76576;SDS011;65441;44.748;37.600;2023-10-31T07:36:20;3.40;;;0.77;;
76576;SDS011;65441;44.748;37.600;2023-10-31T07:38:48;11.05;;;1.70;;
76576;SDS011;65441;44.748;37.600;2023-10-31T07:41:16;16.00;;;2.40;;
76576;SDS011;65441;44.748;37.600;2023-10-31T07:43:44;6.05;;;1.10;;
76576;SDS011;65441;44.748;37.600;2023-10-31T07:46:12;2.38;;;0.50;;
76576;SDS011;65441;44.748;37.600;2023-10-31T07:48:41;1.08;;;0.40;;
76576;SDS011;65441;44.748;37.600;2023-10-31T07:51:10;4.13;;;0.70;;
76576;SDS011;65441;44.748;37.600;2023-10-31T07:53:38;6.72;;;2.10;;
76576;SDS011;65441;44.748;37.600;2023-10-31T07:56:08;4.05;;;1.15;;
76576;SDS011;65441;44.748;37.600;2023-10-31T07:58:42;2.67;;;0.52;;
76576;SDS011;65441;44.748;37.600;2023-10-31T08:01:12;2.35;;;0.60;;
76576;SDS011;65441;44.748;37.600;2023-10-31T08:03:42;1.40;;;0.60;;
76576;SDS011;65441;44.748;37.600;2023-10-31T08:06:10;2.88;;;0.60;;
76576;SDS011;65441;44.748;37.600;2023-10-31T08:08:38;1.27;;;0.50;;
76576;SDS011;65441;44.748;37.600;2023-10-31T08:11:07;1.70;;;0.60;;
76576;SDS011;65441;44.748;37.600;2023-10-31T08:13:36;2.35;;;0.77;;
76576;SDS011;65441;44.748;37.600;2023-10-31T08:16:05;3.15;;;0.85;;
76576;SDS011;65441;44.748;37.600;2023-10-31T08:18:37;1.33;;;0.60;;
76576;SDS011;65441;44.748;37.600;2023-10-31T08:21:08;2.08;;;0.63;;
76576;SDS011;65441;44.748;37.600;2023-10-31T08:23:37;2.78;;;0.80;;
76576;SDS011;65441;44.748;37.600;2023-10-31T08:26:07;3.05;;;0.98;;
76576;SDS011;65441;44.748;37.600;2023-10-31T08:28:38;4.13;;;1.20;;
76576;SDS011;65441;44.748;37.600;2023-10-31T08:31:07;5.65;;;1.40;;
76576;SDS011;65441;44.748;37.600;2023-10-31T08:33:35;4.28;;;0.93;;
76576;SDS011;65441;44.748;37.600;2023-10-31T08:36:05;2.63;;;0.80;;
76576;SDS011;65441;44.748;37.600;2023-10-31T08:38:37;4.57;;;1.02;;
76576;SDS011;65441;44.748;37.600;2023-10-31T08:41:06;4.68;;;1.35;;
76576;SDS011;65441;44.748;37.600;2023-10-31T08:43:39;3.13;;;0.88;;
76576;SDS011;65441;44.748;37.600;2023-10-31T08:46:07;3.05;;;1.00;;
76576;SDS011;65441;44.748;37.600;2023-10-31T08:48:35;3.13;;;0.98;;
76576;SDS011;65441;44.748;37.600;2023-10-31T08:51:05;4.28;;;1.38;;
76576;SDS011;65441;44.748;37.600;2023-10-31T08:53:34;3.30;;;1.13;;
76576;SDS011;65441;44.748;37.600;2023-10-31T08:56:03;4.45;;;1.15;;
76576;SDS011;65441;44.748;37.600;2023-10-31T08:58:31;3.53;;;1.00;;
76576;SDS011;65441;44.748;37.600;2023-10-31T09:01:00;6.72;;;1.50;;
76576;SDS011;65441;44.748;37.600;2023-10-31T09:03:28;4.00;;;1.15;;
76576;SDS011;65441;44.748;37.600;2023-10-31T09:05:57;4.68;;;1.25;;
76576;SDS011;65441;44.748;37.600;2023-10-31T09:08:28;3.28;;;1.20;;
76576;SDS011;65441;44.748;37.600;2023-10-31T09:10:57;5.35;;;1.10;;
76576;SDS011;65441;44.748;37.600;2023-10-31T09:13:26;5.10;;;1.40;;
76576;SDS011;65441;44.748;37.600;2023-10-31T09:15:54;4.45;;;1.27;;
76576;SDS011;65441;44.748;37.600;2023-10-31T09:18:25;3.85;;;1.10;;
76576;SDS011;65441;44.748;37.600;2023-10-31T09:20:54;3.72;;;1.38;;
76576;SDS011;65441;44.748;37.600;2023-10-31T09:23:25;4.72;;;1.30;;
76576;SDS011;65441;44.748;37.600;2023-10-31T09:25:53;3.63;;;1.13;;
76576;SDS011;65441;44.748;37.600;2023-10-31T09:28:22;4.55;;;1.40;;
76576;SDS011;65441;44.748;37.600;2023-10-31T09:30:50;5.32;;;1.45;;
76576;SDS011;65441;44.748;37.600;2023-10-31T09:33:19;6.95;;;1.23;;
76576;SDS011;65441;44.748;37.600;2023-10-31T09:35:49;3.50;;;1.33;;
76576;SDS011;65441;44.748;37.600;2023-10-31T09:38:18;5.20;;;1.38;;
76576;SDS011;65441;44.748;37.600;2023-10-31T09:40:46;5.30;;;1.40;;
76576;SDS011;65441;44.748;37.600;2023-10-31T09:43:14;4.65;;;1.38;;
76576;SDS011;65441;44.748;37.600;2023-10-31T09:45:45;4.70;;;1.38;;
76576;SDS011;65441;44.748;37.600;2023-10-31T09:48:14;3.40;;;1.33;;
76576;SDS011;65441;44.748;37.600;2023-10-31T09:50:44;4.60;;;1.27;;
76576;SDS011;65441;44.748;37.600;2023-10-31T09:53:15;3.58;;;1.23;;
76576;SDS011;65441;44.748;37.600;2023-10-31T09:55:44;4.45;;;1.40;;
76576;SDS011;65441;44.748;37.600;2023-10-31T09:58:15;4.10;;;1.20;;
76576;SDS011;65441;44.748;37.600;2023-10-31T10:00:46;4.30;;;1.40;;
76576;SDS011;65441;44.748;37.600;2023-10-31T10:03:15;2.97;;;1.20;;
76576;SDS011;65441;44.748;37.600;2023-10-31T10:05:47;3.15;;;1.13;;
76576;SDS011;65441;44.748;37.600;2023-10-31T10:08:19;4.50;;;1.23;;
76576;SDS011;65441;44.748;37.600;2023-10-31T10:10:48;4.13;;;1.30;;
76576;SDS011;65441;44.748;37.600;2023-10-31T10:13:18;5.93;;;1.30;;
76576;SDS011;65441;44.748;37.600;2023-10-31T10:15:49;2.65;;;0.98;;
76576;SDS011;65441;44.748;37.600;2023-10-31T10:18:26;3.03;;;1.10;;
76576;SDS011;65441;44.748;37.600;2023-10-31T10:20:55;4.22;;;1.25;;
76576;SDS011;65441;44.748;37.600;2023-10-31T10:23:24;4.78;;;1.30;;
76576;SDS011;65441;44.748;37.600;2023-10-31T10:25:54;4.30;;;1.20;;
76576;SDS011;65441;44.748;37.600;2023-10-31T10:28:23;3.90;;;1.30;;
76576;SDS011;65441;44.748;37.600;2023-10-31T10:30:53;5.25;;;1.40;;
76576;SDS011;65441;44.748;37.600;2023-10-31T10:33:22;5.32;;;1.30;;
76576;SDS011;65441;44.748;37.600;2023-10-31T10:35:50;3.60;;;1.10;;
76576;SDS011;65441;44.748;37.600;2023-10-31T10:38:18;6.35;;;1.60;;
76576;SDS011;65441;44.748;37.600;2023-10-31T10:40:47;5.88;;;1.30;;
76576;SDS011;65441;44.748;37.600;2023-10-31T10:43:18;3.42;;;1.20;;
76576;SDS011;65441;44.748;37.600;2023-10-31T10:45:50;4.43;;;1.23;;
76576;SDS011;65441;44.748;37.600;2023-10-31T10:48:23;3.58;;;1.10;;
76576;SDS011;65441;44.748;37.600;2023-10-31T10:50:57;4.70;;;1.55;;
76576;SDS011;65441;44.748;37.600;2023-10-31T10:53:29;7.32;;;1.30;;
76576;SDS011;65441;44.748;37.600;2023-10-31T10:56:00;6.07;;;1.58;;
76576;SDS011;65441;44.748;37.600;2023-10-31T10:58:36;5.95;;;1.30;;
76576;SDS011;65441;44.748;37.600;2023-10-31T11:01:10;3.35;;;1.30;;
76576;SDS011;65441;44.748;37.600;2023-10-31T11:03:39;5.15;;;1.17;;
76576;SDS011;65441;44.748;37.600;2023-10-31T11:06:07;3.90;;;1.30;;
76576;SDS011;65441;44.748;37.600;2023-10-31T11:08:36;3.67;;;1.20;;
76576;SDS011;65441;44.748;37.600;2023-10-31T11:11:05;3.05;;;1.10;;
76576;SDS011;65441;44.748;37.600;2023-10-31T11:13:34;4.32;;;1.25;;
76576;SDS011;65441;44.748;37.600;2023-10-31T11:16:04;3.97;;;1.27;;
76576;SDS011;65441;44.748;37.600;2023-10-31T11:18:38;3.70;;;1.10;;
76576;SDS011;65441;44.748;37.600;2023-10-31T11:21:07;4.97;;;1.40;;
76576;SDS011;65441;44.748;37.600;2023-10-31T11:23:35;4.63;;;1.10;;
76576;SDS011;65441;44.748;37.600;2023-10-31T11:26:06;4.55;;;1.42;;
76576;SDS011;65441;44.748;37.600;2023-10-31T11:28:35;5.60;;;1.30;;
76576;SDS011;65441;44.748;37.600;2023-10-31T11:31:03;4.50;;;1.30;;
76576;SDS011;65441;44.748;37.600;2023-10-31T11:33:33;3.45;;;1.27;;
76576;SDS011;65441;44.748;37.600;2023-10-31T11:36:09;3.42;;;1.10;;
76576;SDS011;65441;44.748;37.600;2023-10-31T11:38:38;5.03;;;1.20;;
76576;SDS011;65441;44.748;37.600;2023-10-31T11:41:07;4.45;;;1.20;;
76576;SDS011;65441;44.748;37.600;2023-10-31T11:43:36;6.03;;;1.30;;
76576;SDS011;65441;44.748;37.600;2023-10-31T11:46:18;4.45;;;1.30;;
76576;SDS011;65441;44.748;37.600;2023-10-31T11:48:50;4.93;;;1.30;;
76576;SDS011;65441;44.748;37.600;2023-10-31T11:51:19;5.63;;;1.45;;
76576;SDS011;65441;44.748;37.600;2023-10-31T11:53:47;3.97;;;1.23;;
76576;SDS011;65441;44.748;37.600;2023-10-31T11:56:19;3.42;;;1.10;;
76576;SDS011;65441;44.748;37.600;2023-10-31T12:01:32;5.53;;;1.10;;
76576;SDS011;65441;44.748;37.600;2023-10-31T12:04:02;4.68;;;1.33;;
76576;SDS011;65441;44.748;37.600;2023-10-31T12:06:30;4.00;;;1.38;;
76576;SDS011;65441;44.748;37.600;2023-10-31T12:08:59;3.78;;;1.20;;
76576;SDS011;65441;44.748;37.600;2023-10-31T12:11:28;5.15;;;1.38;;
76576;SDS011;65441;44.748;37.600;2023-10-31T12:13:56;2.95;;;1.00;;
76576;SDS011;65441;44.748;37.600;2023-10-31T12:16:27;4.38;;;1.27;;
76576;SDS011;65441;44.748;37.600;2023-10-31T12:18:56;4.45;;;1.45;;
76576;SDS011;65441;44.748;37.600;2023-10-31T12:21:36;20.73;;;6.22;;
76576;SDS011;65441;44.748;37.600;2023-10-31T12:24:07;8.25;;;3.33;;
76576;SDS011;65441;44.748;37.600;2023-10-31T12:26:36;9.93;;;3.33;;
76576;SDS011;65441;44.748;37.600;2023-10-31T12:29:12;6.82;;;2.00;;
76576;SDS011;65441;44.748;37.600;2023-10-31T12:31:46;4.97;;;1.33;;
76576;SDS011;65441;44.748;37.600;2023-10-31T12:34:16;2.70;;;1.08;;
76576;SDS011;65441;44.748;37.600;2023-10-31T12:36:46;4.88;;;1.63;;
76576;SDS011;65441;44.748;37.600;2023-10-31T12:39:16;4.80;;;1.48;;
76576;SDS011;65441;44.748;37.600;2023-10-31T12:41:48;5.35;;;1.23;;
76576;SDS011;65441;44.748;37.600;2023-10-31T12:44:17;5.50;;;1.33;;
76576;SDS011;65441;44.748;37.600;2023-10-31T12:46:50;4.15;;;1.35;;
76576;SDS011;65441;44.748;37.600;2023-10-31T12:49:19;5.32;;;1.50;;
76576;SDS011;65441;44.748;37.600;2023-10-31T12:51:59;6.07;;;1.45;;
76576;SDS011;65441;44.748;37.600;2023-10-31T12:56:58;5.47;;;1.40;;
76576;SDS011;65441;44.748;37.600;2023-10-31T12:59:27;4.75;;;1.38;;
76576;SDS011;65441;44.748;37.600;2023-10-31T13:01:55;4.22;;;1.42;;
76576;SDS011;65441;44.748;37.600;2023-10-31T13:04:24;13.70;;;3.70;;
76576;SDS011;65441;44.748;37.600;2023-10-31T13:06:56;9.10;;;3.05;;
76576;SDS011;65441;44.748;37.600;2023-10-31T13:09:30;6.00;;;1.85;;
76576;SDS011;65441;44.748;37.600;2023-10-31T13:12:00;7.15;;;1.67;;
76576;SDS011;65441;44.748;37.600;2023-10-31T13:14:29;7.53;;;1.80;;
76576;SDS011;65441;44.748;37.600;2023-10-31T13:16:57;4.30;;;1.45;;
76576;SDS011;65441;44.748;37.600;2023-10-31T13:19:26;4.45;;;1.33;;
76576;SDS011;65441;44.748;37.600;2023-10-31T13:21:54;6.45;;;1.50;;
76576;SDS011;65441;44.748;37.600;2023-10-31T13:24:24;4.82;;;1.75;;
76576;SDS011;65441;44.748;37.600;2023-10-31T13:26:52;4.40;;;1.20;;
76576;SDS011;65441;44.748;37.600;2023-10-31T13:29:20;3.72;;;1.20;;
76576;SDS011;65441;44.748;37.600;2023-10-31T13:31:51;4.63;;;1.30;;
76576;SDS011;65441;44.748;37.600;2023-10-31T13:34:19;7.15;;;1.60;;
76576;SDS011;65441;44.748;37.600;2023-10-31T13:36:47;5.10;;;1.23;;
76576;SDS011;65441;44.748;37.600;2023-10-31T13:39:15;5.35;;;1.30;;
76576;SDS011;65441;44.748;37.600;2023-10-31T13:41:45;4.20;;;1.33;;
76576;SDS011;65441;44.748;37.600;2023-10-31T13:44:13;4.38;;;1.25;;
76576;SDS011;65441;44.748;37.600;2023-10-31T13:46:41;5.20;;;1.33;;
76576;SDS011;65441;44.748;37.600;2023-10-31T13:49:10;3.63;;;1.20;;
76576;SDS011;65441;44.748;37.600;2023-10-31T13:51:38;5.80;;;1.40;;
76576;SDS011;65441;44.748;37.600;2023-10-31T13:54:06;7.03;;;1.15;;
76576;SDS011;65441;44.748;37.600;2023-10-31T13:56:35;4.32;;;1.05;;
76576;SDS011;65441;44.748;37.600;2023-10-31T13:59:04;3.28;;;1.20;;
76576;SDS011;65441;44.748;37.600;2023-10-31T14:01:32;4.57;;;1.00;;
76576;SDS011;65441;44.748;37.600;2023-10-31T14:04:00;4.35;;;1.27;;
76576;SDS011;65441;44.748;37.600;2023-10-31T14:06:28;6.00;;;1.20;;
76576;SDS011;65441;44.748;37.600;2023-10-31T14:08:58;4.63;;;0.98;;
76576;SDS011;65441;44.748;37.600;2023-10-31T14:11:30;10.85;;;2.25;;
76576;SDS011;65441;44.748;37.600;2023-10-31T14:13:59;8.05;;;2.30;;
76576;SDS011;65441;44.748;37.600;2023-10-31T14:16:33;11.07;;;2.58;;
76576;SDS011;65441;44.748;37.600;2023-10-31T14:19:02;5.30;;;1.63;;
76576;SDS011;65441;44.748;37.600;2023-10-31T14:21:30;5.55;;;1.50;;
76576;SDS011;65441;44.748;37.600;2023-10-31T14:23:58;7.47;;;1.77;;
76576;SDS011;65441;44.748;37.600;2023-10-31T14:26:26;6.18;;;1.52;;
76576;SDS011;65441;44.748;37.600;2023-10-31T14:28:55;6.80;;;2.13;;
76576;SDS011;65441;44.748;37.600;2023-10-31T14:31:23;6.75;;;1.70;;
76576;SDS011;65441;44.748;37.600;2023-10-31T14:33:53;7.97;;;2.25;;
76576;SDS011;65441;44.748;37.600;2023-10-31T14:36:21;5.53;;;1.20;;
76576;SDS011;65441;44.748;37.600;2023-10-31T14:38:49;8.02;;;2.20;;
76576;SDS011;65441;44.748;37.600;2023-10-31T14:41:17;7.30;;;1.73;;
76576;SDS011;65441;44.748;37.600;2023-10-31T14:43:46;5.53;;;1.63;;
76576;SDS011;65441;44.748;37.600;2023-10-31T14:46:14;7.55;;;2.17;;
76576;SDS011;65441;44.748;37.600;2023-10-31T14:48:42;7.68;;;1.90;;
76576;SDS011;65441;44.748;37.600;2023-10-31T14:51:12;7.13;;;1.92;;